createdAt,value
2019-02-28T00:01:29.135Z,50.12
2019-02-28T00:03:59.191Z,52.38
2019-02-28T00:06:29.452Z,51.65
2019-02-28T00:09:02.352Z,45.92
2019-02-28T00:11:32.481Z,49.77
2019-02-28T00:14:05.742Z,45.20
2019-02-28T00:16:36.328Z,41.63
2019-02-28T00:19:07.207Z,50.85
2019-02-28T00:21:44.935Z,46.33
2019-02-28T00:24:15.808Z,49.75
2019-02-28T00:26:47.634Z,49.15
2019-02-28T00:29:17.729Z,53.48
2019-02-28T00:31:49.989Z,52.65
2019-02-28T00:34:22.474Z,49.42
2019-02-28T00:36:53.367Z,60.58
2019-02-28T00:39:24.074Z,63.42
2019-02-28T00:41:53.788Z,52.08
2019-02-28T00:44:24.470Z,54.42
2019-02-28T00:46:55.020Z,61.53
2019-02-28T00:49:25.492Z,60.65
2019-02-28T00:51:55.655Z,57.98
2019-02-28T00:54:25.871Z,68.28
2019-02-28T00:56:56.350Z,55.88
2019-02-28T00:59:26.723Z,60.12
2019-02-28T01:01:57.340Z,65.75
2019-02-28T01:04:29.830Z,65.30
2019-02-28T01:07:00.861Z,58.28
2019-02-28T01:09:31.010Z,59.50
2019-02-28T01:12:01.630Z,63.55
2019-02-28T01:14:32.389Z,59.10
2019-02-28T01:17:03.970Z,56.73
2019-02-28T01:19:34.684Z,72.00
2019-02-28T01:22:07.284Z,55.88
2019-02-28T01:24:37.440Z,71.30
2019-02-28T01:27:07.940Z,63.48
2019-02-28T01:29:39.996Z,68.28
2019-02-28T01:32:15.632Z,70.97
2019-02-28T01:34:46.650Z,65.10
2019-02-28T01:37:20.831Z,62.03
2019-02-28T01:39:53.379Z,74.47
2019-02-28T01:42:26.482Z,67.97
2019-02-28T01:44:57.218Z,76.55
2019-02-28T01:47:27.108Z,69.45
2019-02-28T01:49:58.747Z,63.13
2019-02-28T01:52:29.187Z,71.62
2019-02-28T01:54:59.537Z,69.25
2019-02-28T01:57:30.191Z,72.08
2019-02-28T02:00:03.740Z,75.03
2019-02-28T02:02:34.095Z,70.03
2019-02-28T02:05:04.797Z,59.63
2019-02-28T02:07:35.107Z,70.70
2019-02-28T02:10:08.649Z,63.87
2019-02-28T02:12:39.186Z,69.07
2019-02-28T02:15:16.871Z,72.10
2019-02-28T02:17:46.546Z,67.65
2019-02-28T02:20:17.622Z,76.30
2019-02-28T02:22:54.416Z,72.37
2019-02-28T02:25:24.943Z,66.72
2019-02-28T02:27:56.470Z,65.62
2019-02-28T02:30:27.450Z,67.72
2019-02-28T02:32:57.469Z,69.20
2019-02-28T02:35:27.576Z,80.92
2019-02-28T02:37:57.943Z,71.67
2019-02-28T02:40:27.918Z,65.75
2019-02-28T02:43:00.747Z,72.67
2019-02-28T02:45:30.724Z,66.12
2019-02-28T02:48:05.210Z,68.85
2019-02-28T02:50:35.998Z,69.92
2019-02-28T02:53:06.897Z,71.20
2019-02-28T02:55:37.093Z,68.75
2019-02-28T02:58:07.777Z,71.20
2019-02-28T03:00:39.035Z,65.45
2019-02-28T03:03:09.292Z,72.17
2019-02-28T03:05:44.285Z,70.12
2019-02-28T03:08:14.301Z,67.25
2019-02-28T03:10:45.071Z,70.17
2019-02-28T03:13:15.876Z,72.27
2019-02-28T03:15:46.864Z,69.95
2019-02-28T03:18:20.414Z,67.65
2019-02-28T03:20:48.639Z,64.03
2019-02-28T03:23:19.151Z,75.83
2019-02-28T03:25:51.519Z,89.13
2019-02-28T03:28:23.485Z,71.50
2019-02-28T03:30:55.188Z,73.33
2019-02-28T03:33:28.711Z,76.65
2019-02-28T03:35:57.685Z,68.70
2019-02-28T03:38:27.698Z,73.65
2019-02-28T03:40:58.048Z,73.47
2019-02-28T03:43:29.196Z,78.20
2019-02-28T03:45:59.332Z,77.22
2019-02-28T03:48:35.907Z,67.10
2019-02-28T03:51:19.285Z,78.70
2019-02-28T03:53:55.605Z,69.97
2019-02-28T03:56:20.348Z,70.37
2019-02-28T03:58:50.585Z,79.82
2019-02-28T04:01:20.726Z,72.60
2019-02-28T04:03:51.085Z,77.67
2019-02-28T04:06:21.494Z,74.27
2019-02-28T04:08:52.394Z,79.65
2019-02-28T04:11:22.889Z,74.67
2019-02-28T04:13:56.017Z,71.77
2019-02-28T04:16:27.078Z,87.15
2019-02-28T04:18:57.304Z,83.10
2019-02-28T04:21:31.322Z,84.40
2019-02-28T04:24:39.423Z,77.27
2019-02-28T04:27:09.954Z,76.07
2019-02-28T04:29:40.110Z,78.22
2019-02-28T04:32:47.665Z,70.45
2019-02-28T04:35:24.283Z,76.67
2019-02-28T04:37:51.603Z,83.45
2019-02-28T04:40:41.112Z,82.53
2019-02-28T04:43:14.495Z,80.50
2019-02-28T04:45:49.027Z,88.55
2019-02-28T04:48:22.703Z,77.22
2019-02-28T04:50:58.762Z,75.28
2019-02-28T04:53:28.645Z,85.53
2019-02-28T04:56:02.137Z,87.57
2019-02-28T04:58:37.724Z,86.30
2019-02-28T05:01:09.153Z,83.97
2019-02-28T05:03:39.968Z,95.75
2019-02-28T05:06:18.334Z,97.35
2019-02-28T05:08:48.855Z,87.05
2019-02-28T05:11:19.164Z,100.65
2019-02-28T05:13:50.277Z,92.05
2019-02-28T05:16:20.114Z,86.17
2019-02-28T05:18:49.942Z,86.45
2019-02-28T05:21:20.276Z,88.40
2019-02-28T05:23:49.988Z,100.40
2019-02-28T05:26:23.502Z,95.45
2019-02-28T05:28:52.150Z,92.12
2019-02-28T05:31:24.168Z,101.87
2019-02-28T05:33:53.849Z,95.20
2019-02-28T05:36:24.025Z,106.78
2019-02-28T05:38:56.535Z,102.72
2019-02-28T05:41:25.869Z,92.08
2019-02-28T05:43:55.931Z,85.30
2019-02-28T05:46:25.971Z,94.42
2019-02-28T05:48:55.757Z,87.40
2019-02-28T05:51:25.905Z,100.33
2019-02-28T05:53:55.865Z,88.07
2019-02-28T05:56:25.668Z,78.57
2019-02-28T05:58:56.265Z,88.82
2019-02-28T06:01:26.498Z,83.67
2019-02-28T06:03:56.522Z,95.00
2019-02-28T06:06:26.960Z,95.85
2019-02-28T06:08:57.120Z,89.83
2019-02-28T06:11:27.543Z,84.92
2019-02-28T06:13:59.662Z,95.77
2019-02-28T06:16:29.972Z,90.53
2019-02-28T06:19:00.191Z,84.50
2019-02-28T06:21:30.427Z,104.00
2019-02-28T06:24:01.418Z,92.82
2019-02-28T06:26:32.910Z,95.47
2019-02-28T06:29:05.092Z,95.45
2019-02-28T06:31:34.520Z,90.45
2019-02-28T06:34:05.661Z,90.10
2019-02-28T06:36:35.464Z,99.37
2019-02-28T06:39:06.911Z,102.17
2019-02-28T06:41:39.949Z,98.60
2019-02-28T06:44:08.226Z,88.67
2019-02-28T06:46:39.792Z,93.03
2019-02-28T06:49:09.189Z,109.37
2019-02-28T06:51:38.822Z,99.90
2019-02-28T06:54:08.758Z,94.45
2019-02-28T06:56:38.659Z,105.87
2019-02-28T06:59:08.582Z,95.60
2019-02-28T07:01:38.464Z,100.27
2019-02-28T07:04:08.090Z,91.57
2019-02-28T07:06:37.865Z,97.55
2019-02-28T07:09:08.126Z,101.80
2019-02-28T07:11:37.844Z,104.15
2019-02-28T07:14:07.268Z,116.53
2019-02-28T07:16:39.065Z,111.68
2019-02-28T07:19:09.182Z,101.27
2019-02-28T07:21:43.007Z,106.25
2019-02-28T07:24:10.264Z,103.80
2019-02-28T07:26:39.868Z,91.12
2019-02-28T07:29:11.971Z,105.65
2019-02-28T07:31:40.687Z,100.82
2019-02-28T07:34:10.514Z,93.85
2019-02-28T07:36:41.524Z,104.30
2019-02-28T07:39:11.175Z,100.53
2019-02-28T07:41:41.499Z,101.53
2019-02-28T07:44:11.208Z,101.97
2019-02-28T07:46:42.258Z,107.12
2019-02-28T07:49:12.305Z,95.10
2019-02-28T07:51:41.944Z,104.85
2019-02-28T07:54:12.655Z,106.15
2019-02-28T07:56:44.235Z,120.13
2019-02-28T07:59:13.864Z,100.25
2019-02-28T08:01:43.296Z,106.37
2019-02-28T08:04:17.873Z,116.40
2019-02-28T08:06:44.417Z,95.55
2019-02-28T08:09:32.940Z,94.32
2019-02-28T08:12:02.701Z,98.20
2019-02-28T08:14:32.490Z,105.43
2019-02-28T08:17:02.103Z,103.58
2019-02-28T08:19:31.903Z,99.13
2019-02-28T08:22:01.628Z,116.95
2019-02-28T08:24:31.218Z,102.07
2019-02-28T08:27:00.928Z,102.55
2019-02-28T08:29:30.659Z,91.50
2019-02-28T08:32:00.182Z,101.80
2019-02-28T08:34:29.704Z,100.58
2019-02-28T08:36:59.462Z,94.35
2019-02-28T08:39:28.954Z,92.65
2019-02-28T08:42:04.389Z,97.08
2019-02-28T08:44:30.059Z,111.68
2019-02-28T08:46:59.617Z,99.52
2019-02-28T08:49:29.265Z,95.47
2019-02-28T08:51:58.981Z,106.55
2019-02-28T08:54:28.382Z,107.27
2019-02-28T08:56:58.040Z,93.82
2019-02-28T08:59:27.779Z,104.63
2019-02-28T09:01:57.181Z,89.37
2019-02-28T09:04:26.821Z,100.35
2019-02-28T09:06:56.774Z,92.65
2019-02-28T09:09:26.707Z,113.72
2019-02-28T09:11:58.197Z,93.50
2019-02-28T09:14:27.738Z,96.35
2019-02-28T09:16:57.344Z,105.95
2019-02-28T09:19:27.263Z,92.85
2019-02-28T09:21:57.422Z,94.20
2019-02-28T09:24:27.293Z,101.10
2019-02-28T09:26:57.062Z,101.82
2019-02-28T09:29:26.603Z,100.05
2019-02-28T09:31:56.333Z,97.27
2019-02-28T09:34:26.000Z,86.10
2019-02-28T09:36:56.848Z,86.70
2019-02-28T09:39:26.667Z,94.72
2019-02-28T09:41:56.378Z,104.93
2019-02-28T09:44:25.980Z,100.97
2019-02-28T09:46:55.587Z,101.57
2019-02-28T09:49:25.301Z,113.83
2019-02-28T09:51:55.139Z,104.27
2019-02-28T09:54:25.495Z,103.73
2019-02-28T09:56:55.341Z,101.65
2019-02-28T09:59:25.271Z,95.43
2019-02-28T10:02:01.165Z,102.30
2019-02-28T10:04:27.347Z,100.12
2019-02-28T10:06:57.253Z,104.00
2019-02-28T10:09:27.540Z,103.33
2019-02-28T10:11:57.482Z,104.27
2019-02-28T10:14:28.982Z,105.47
2019-02-28T10:16:59.341Z,103.90
2019-02-28T10:19:29.067Z,114.77
2019-02-28T10:21:58.622Z,108.53
2019-02-28T10:24:28.539Z,93.03
2019-02-28T10:26:59.583Z,96.57
2019-02-28T10:29:29.342Z,97.93
2019-02-28T10:31:59.225Z,106.23
2019-02-28T10:34:28.680Z,99.27
2019-02-28T10:36:58.356Z,95.60
2019-02-28T10:39:28.021Z,99.17
2019-02-28T10:41:57.671Z,112.43
2019-02-28T10:44:30.625Z,105.80
2019-02-28T10:46:58.378Z,91.53
2019-02-28T10:49:28.237Z,97.03
2019-02-28T10:51:57.738Z,94.10
2019-02-28T10:54:27.444Z,104.50
2019-02-28T10:56:57.052Z,111.97
2019-02-28T10:59:26.758Z,101.07
2019-02-28T11:01:56.697Z,94.40
2019-02-28T11:04:27.590Z,89.23
2019-02-28T11:06:59.331Z,84.07
2019-02-28T11:09:28.739Z,95.90
2019-02-28T11:11:58.575Z,85.83
2019-02-28T11:14:28.256Z,87.93
2019-02-28T11:16:59.372Z,85.53
2019-02-28T11:19:29.338Z,102.63
2019-02-28T11:22:01.612Z,98.67
2019-02-28T11:24:30.292Z,72.87
2019-02-28T11:26:59.897Z,93.80
2019-02-28T11:29:29.703Z,83.27
2019-02-28T11:31:59.576Z,81.63
2019-02-28T11:34:29.338Z,87.90
2019-02-28T11:36:58.940Z,77.27
2019-02-28T11:39:30.506Z,84.70
2019-02-28T11:42:00.176Z,77.37
2019-02-28T11:44:29.912Z,76.43
2019-02-28T11:46:59.578Z,82.33
2019-02-28T11:49:29.468Z,69.70
2019-02-28T11:51:58.984Z,80.20
2019-02-28T11:54:28.736Z,75.20
2019-02-28T11:57:02.809Z,86.20
2019-02-28T11:59:30.303Z,82.10
2019-02-28T12:01:59.606Z,77.13
2019-02-28T12:04:29.336Z,75.40
2019-02-28T12:07:00.839Z,70.13
2019-02-28T12:09:30.417Z,67.23
2019-02-28T12:12:00.384Z,78.80
2019-02-28T12:14:30.170Z,72.67
2019-02-28T12:17:00.181Z,76.07
2019-02-28T12:19:30.064Z,78.13
2019-02-28T12:22:00.295Z,69.67
2019-02-28T12:24:32.391Z,71.57
2019-02-28T12:27:01.378Z,81.57
2019-02-28T12:29:31.110Z,87.00
2019-02-28T12:32:00.822Z,88.00
2019-02-28T12:34:32.166Z,79.33
2019-02-28T12:37:01.855Z,80.70
2019-02-28T12:39:33.331Z,83.60
2019-02-28T12:42:03.058Z,85.60
2019-02-28T12:44:33.176Z,85.00
2019-02-28T12:47:03.354Z,84.03
2019-02-28T12:49:33.365Z,88.97
2019-02-28T12:52:03.181Z,86.83
2019-02-28T12:54:33.303Z,87.33
2019-02-28T12:57:03.943Z,90.57
2019-02-28T12:59:34.819Z,78.23
2019-02-28T13:02:07.199Z,98.80
2019-02-28T13:04:36.740Z,100.87
2019-02-28T13:07:06.536Z,86.57
2019-02-28T13:09:36.536Z,95.37
2019-02-28T13:12:08.040Z,100.00
2019-02-28T13:14:40.586Z,92.57
2019-02-28T13:17:09.655Z,92.67
2019-02-28T13:19:39.542Z,94.30
2019-02-28T13:22:09.309Z,101.40
2019-02-28T13:24:42.444Z,116.53
2019-02-28T13:27:11.815Z,86.33
2019-02-28T13:29:41.701Z,108.27
2019-02-28T13:32:11.955Z,104.30
2019-02-28T13:34:41.699Z,99.77
2019-02-28T13:37:11.568Z,102.63
2019-02-28T13:39:41.174Z,108.00
2019-02-28T13:42:10.862Z,112.77
2019-02-28T13:44:40.486Z,108.50
2019-02-28T13:47:10.826Z,115.17
2019-02-28T13:49:40.855Z,110.83
2019-02-28T13:52:10.843Z,110.60
2019-02-28T13:54:42.043Z,113.10
2019-02-28T13:57:11.873Z,110.00
2019-02-28T13:59:41.578Z,109.60
2019-02-28T14:02:13.499Z,118.87
2019-02-28T14:04:42.418Z,117.77
2019-02-28T14:07:12.268Z,105.20
2019-02-28T14:09:41.821Z,110.63
2019-02-28T14:12:11.466Z,107.73
2019-02-28T14:14:42.310Z,97.00
2019-02-28T14:17:12.775Z,94.03
2019-02-28T14:19:42.415Z,97.83
2019-02-28T14:22:12.346Z,95.57
2019-02-28T14:24:42.172Z,84.53
2019-02-28T14:27:12.057Z,86.20
2019-02-28T14:29:42.980Z,85.70
2019-02-28T14:32:13.141Z,91.23
2019-02-28T14:34:42.747Z,78.87
2019-02-28T14:37:12.654Z,72.93
2019-02-28T14:39:42.679Z,80.50
2019-02-28T14:42:13.494Z,88.33
2019-02-28T14:44:43.139Z,83.40
2019-02-28T14:47:12.837Z,85.97
2019-02-28T14:49:43.895Z,95.53
2019-02-28T14:52:14.411Z,102.87
2019-02-28T14:54:44.455Z,89.50
2019-02-28T14:57:16.642Z,103.50
2019-02-28T14:59:45.549Z,116.50
2019-02-28T15:02:15.413Z,115.73
2019-02-28T15:04:45.837Z,105.33
2019-02-28T15:07:15.513Z,128.43
2019-02-28T15:09:45.298Z,115.20
2019-02-28T15:12:15.182Z,125.63
2019-02-28T15:14:44.936Z,123.07
2019-02-28T15:17:14.579Z,111.67
2019-02-28T15:19:44.159Z,113.60
2019-02-28T15:22:14.230Z,117.77
2019-02-28T15:24:45.293Z,114.10
2019-02-28T15:27:15.173Z,113.07
2019-02-28T15:29:44.814Z,92.07
2019-02-28T15:32:17.241Z,125.60
2019-02-28T15:34:46.134Z,117.10
2019-02-28T15:37:15.539Z,103.37
2019-02-28T15:39:44.895Z,97.83
2019-02-28T15:42:14.813Z,108.90
2019-02-28T15:44:44.415Z,80.15
2019-02-28T15:47:14.455Z,94.67
2019-02-28T15:49:44.039Z,99.90
2019-02-28T15:52:14.096Z,84.95
2019-02-28T15:54:43.745Z,83.67
2019-02-28T15:57:13.491Z,89.58
2019-02-28T15:59:43.493Z,83.20
2019-02-28T16:02:13.733Z,85.07
2019-02-28T16:04:43.734Z,86.13
2019-02-28T16:07:13.430Z,82.22
2019-02-28T16:09:43.259Z,79.00
2019-02-28T16:12:15.201Z,80.77
2019-02-28T16:14:44.214Z,69.83
2019-02-28T16:17:13.907Z,86.33
2019-02-28T16:19:43.855Z,92.80
2019-02-28T16:22:14.646Z,73.90
2019-02-28T16:24:45.054Z,71.60
2019-02-28T16:27:14.687Z,83.37
2019-02-28T16:29:44.085Z,81.50
2019-02-28T16:32:15.115Z,76.00
2019-02-28T16:34:45.294Z,81.03
2019-02-28T16:37:15.052Z,75.97
2019-02-28T16:39:44.863Z,85.77
2019-02-28T16:42:15.176Z,83.23
2019-02-28T16:44:45.303Z,68.87
2019-02-28T16:47:15.219Z,79.33
2019-02-28T16:49:45.255Z,72.27
2019-02-28T16:52:14.954Z,55.27
2019-02-28T16:54:44.692Z,58.30
2019-02-28T16:57:14.452Z,54.50
2019-02-28T16:59:44.069Z,67.87
2019-02-28T17:02:13.733Z,52.10
2019-02-28T17:04:48.579Z,37.63
2019-02-28T17:07:36.956Z,45.60
2019-02-28T17:14:53.889Z,41.47
2019-02-28T17:17:13.878Z,38.67
2019-02-28T17:20:07.980Z,37.70
2019-02-28T17:26:12.131Z,29.77
2019-02-28T17:37:33.194Z,27.97
2019-02-28T17:38:37.145Z,32.50
2019-02-28T17:41:38.635Z,34.80
2019-02-28T17:45:10.158Z,25.47
2019-02-28T17:52:12.789Z,29.33
2019-02-28T17:55:14.514Z,27.30
2019-02-28T17:58:41.108Z,37.93
2019-02-28T18:01:41.246Z,33.67
2019-02-28T18:04:34.045Z,36.10
2019-02-28T18:07:47.460Z,23.00
2019-02-28T18:10:59.191Z,37.03
2019-02-28T18:13:52.253Z,26.70
2019-02-28T18:16:58.268Z,27.40
2019-02-28T18:19:43.447Z,26.60
2019-02-28T18:22:32.918Z,26.43
2019-02-28T18:25:59.098Z,27.17
2019-02-28T18:28:47.098Z,20.53
2019-02-28T18:31:19.085Z,22.53
2019-02-28T18:34:11.833Z,20.77
2019-02-28T18:36:44.340Z,20.47
2019-02-28T18:39:15.430Z,17.07
2019-02-28T18:41:46.582Z,28.30
2019-02-28T18:44:18.782Z,26.50
2019-02-28T18:46:49.153Z,23.73
2019-02-28T18:49:21.338Z,22.10
2019-02-28T18:51:51.754Z,14.90
2019-02-28T18:54:30.494Z,13.60
2019-02-28T18:57:00.931Z,23.77
2019-02-28T18:59:31.402Z,17.85
2019-02-28T19:02:02.106Z,25.95
2019-02-28T19:04:32.334Z,16.45
2019-02-28T19:07:03.060Z,24.47
2019-02-28T19:09:33.536Z,26.93
2019-02-28T19:12:03.781Z,21.20
2019-02-28T19:14:33.853Z,15.13
2019-02-28T19:17:03.914Z,20.65
2019-02-28T19:19:34.397Z,16.27
2019-02-28T19:22:04.250Z,24.80
2019-02-28T19:24:34.282Z,19.15
2019-02-28T19:27:04.593Z,19.00
2019-02-28T19:29:35.095Z,25.68
2019-02-28T19:32:05.232Z,22.52
2019-02-28T19:34:36.649Z,30.90
2019-02-28T19:37:09.373Z,36.20
2019-02-28T19:39:47.707Z,20.67
2019-02-28T19:42:18.421Z,19.83
2019-02-28T19:44:49.058Z,26.50
2019-02-28T19:47:22.047Z,17.82
2019-02-28T19:49:52.372Z,23.30
2019-02-28T19:52:25.801Z,26.68
2019-02-28T19:54:56.094Z,27.10
2019-02-28T19:57:26.237Z,29.80
2019-02-28T19:59:56.690Z,17.60
2019-02-28T20:02:26.982Z,27.07
2019-02-28T20:04:57.196Z,19.62
2019-02-28T20:07:27.659Z,35.08
2019-02-28T20:09:57.756Z,21.12
2019-02-28T20:12:27.786Z,25.20
2019-02-28T20:14:58.489Z,27.52
2019-02-28T20:17:41.322Z,15.53
2019-02-28T20:20:13.681Z,12.07
2019-02-28T20:22:44.212Z,20.95
2019-02-28T20:25:14.573Z,14.93
2019-02-28T20:27:44.345Z,19.00
2019-02-28T20:30:16.369Z,11.55
2019-02-28T20:32:47.317Z,13.88
2019-02-28T20:35:26.099Z,14.95
2019-02-28T20:37:50.171Z,13.00
2019-02-28T20:40:21.478Z,15.25
2019-02-28T20:42:51.776Z,17.62
2019-02-28T20:45:22.541Z,23.42
2019-02-28T20:48:08.570Z,22.32
2019-02-28T20:50:41.443Z,20.08
2019-02-28T20:53:14.508Z,25.20
2019-02-28T20:55:47.490Z,27.22
2019-02-28T20:58:18.938Z,28.67
2019-02-28T21:00:49.614Z,31.50
2019-02-28T21:03:20.276Z,27.37
2019-02-28T21:05:50.795Z,25.92
2019-02-28T21:08:28.287Z,32.78
2019-02-28T21:11:24.471Z,29.82
2019-02-28T21:13:55.733Z,32.83
2019-02-28T21:16:38.048Z,39.20
2019-02-28T21:19:11.934Z,37.55
2019-02-28T21:21:46.133Z,28.07
2019-02-28T21:24:34.326Z,27.13
2019-02-28T21:27:07.728Z,28.02
2019-02-28T21:29:37.767Z,28.15
2019-02-28T21:32:08.264Z,23.35
2019-02-28T21:34:38.588Z,20.97
2019-02-28T21:37:13.380Z,24.02
2019-02-28T21:39:44.172Z,19.07
2019-02-28T21:42:14.577Z,27.95
2019-02-28T21:44:45.187Z,22.70
2019-02-28T21:47:16.568Z,27.32
2019-02-28T21:49:47.096Z,22.87
2019-02-28T21:52:17.330Z,31.45
2019-02-28T21:54:47.645Z,20.08
2019-02-28T21:57:19.204Z,24.05
2019-02-28T21:59:50.137Z,16.97
2019-02-28T22:02:20.807Z,21.40
2019-02-28T22:04:54.386Z,33.23
2019-02-28T22:07:24.535Z,27.40
2019-02-28T22:09:55.065Z,19.52
2019-02-28T22:12:25.358Z,27.13
2019-02-28T22:14:55.202Z,26.12
2019-02-28T22:17:25.303Z,31.10
2019-02-28T22:19:55.727Z,23.20
2019-02-28T22:22:25.825Z,29.18
2019-02-28T22:24:56.342Z,31.75
2019-02-28T22:27:26.768Z,27.73
2019-02-28T22:29:59.336Z,27.22
2019-02-28T22:32:47.333Z,33.60
2019-02-28T22:35:27.691Z,31.07
2019-02-28T22:40:42.405Z,38.30
2019-02-28T22:43:20.586Z,33.18
2019-02-28T22:45:50.736Z,43.63
2019-02-28T22:48:21.336Z,33.95
2019-02-28T22:50:52.861Z,41.65
2019-02-28T22:53:24.131Z,39.40
2019-02-28T22:55:57.407Z,38.60
2019-02-28T22:58:27.893Z,34.40
2019-02-28T23:01:03.085Z,39.53
2019-02-28T23:03:36.617Z,41.15
2019-02-28T23:06:09.046Z,38.48
2019-02-28T23:08:40.334Z,34.95
2019-02-28T23:11:10.254Z,35.60
2019-02-28T23:13:40.551Z,33.33
2019-02-28T23:16:11.206Z,33.73
2019-02-28T23:18:41.604Z,46.40
2019-02-28T23:21:19.604Z,40.30
2019-02-28T23:23:49.964Z,48.28
2019-02-28T23:26:28.726Z,46.42
2019-02-28T23:29:37.811Z,43.63
2019-02-28T23:32:59.635Z,52.48
2019-02-28T23:35:34.258Z,46.77
2019-02-28T23:38:09.004Z,44.03
2019-02-28T23:40:45.141Z,46.33
2019-02-28T23:43:19.260Z,42.53
2019-02-28T23:45:52.246Z,48.42
2019-02-28T23:48:23.280Z,45.70
2019-02-28T23:50:53.207Z,50.50
2019-02-28T23:53:26.893Z,40.00
2019-02-28T23:56:01.007Z,43.68
2019-02-28T23:58:31.880Z,37.40
